Mazeppa, North Carolina
Current Conditions -  °F | °C
As of 8:52 AM on Saturday 25 Oct 2014 (Local Time) from KJQF Reporting Station
Clear Clear  
Wind Chill: 45°   Ceiling: Unl
Heat Index: 45°   Visibility: 10mi
Dew Point: 43°   Wind: 0mph
Humidity: 93%   Direction: NA
Pressure: 30.08"   Gusts: NA
Location:  35.5757°N, 80.819°W
Report Text: KJQF 251252Z 00000KT 10SM CLR 07/06 A3008
Loading
Personal Weather Stations






























Interactive Weather Map
Tropical Storm Tracking
New forecast layout! Learn more

10-Day Weather Forecast

Advertisements
Track Severe Weather on mobile